createdAt,value
2023-02-15T00:00:15.008Z,89.07
2023-02-15T00:01:17.619Z,89.38
2023-02-15T00:02:20.831Z,89.60
2023-02-15T00:03:22.798Z,90.26
2023-02-15T00:04:46.955Z,90.09
2023-02-15T00:05:48.553Z,90.82
2023-02-15T00:06:51.627Z,90.31
2023-02-15T00:07:53.283Z,90.35
2023-02-15T00:08:56.573Z,90.58
2023-02-15T00:09:58.615Z,90.57
2023-02-15T00:11:08.434Z,90.53
2023-02-15T00:12:11.017Z,90.42
2023-02-15T00:13:14.980Z,90.39
2023-02-15T00:14:18.751Z,90.58
2023-02-15T00:15:21.266Z,90.32
2023-02-15T00:16:22.957Z,90.44
2023-02-15T00:17:26.823Z,91.64
2023-02-15T00:18:28.393Z,91.30
2023-02-15T00:19:31.591Z,91.56
2023-02-15T00:20:33.385Z,91.39
2023-02-15T00:21:37.643Z,90.70
2023-02-15T00:22:39.526Z,91.24
2023-02-15T00:23:42.166Z,91.33
2023-02-15T00:24:43.832Z,91.41
2023-02-15T00:25:46.408Z,90.74
2023-02-15T00:26:48.684Z,90.41
2023-02-15T00:27:51.508Z,91.06
2023-02-15T00:28:55.373Z,92.10
2023-02-15T00:29:58.061Z,92.05
2023-02-15T00:31:05.065Z,93.85
2023-02-15T00:32:07.967Z,94.60
2023-02-15T00:33:09.599Z,95.72
2023-02-15T00:34:14.734Z,96.06
2023-02-15T00:35:16.698Z,95.42
2023-02-15T00:36:19.503Z,95.58
2023-02-15T00:37:21.156Z,95.24
2023-02-15T00:38:23.821Z,95.07
2023-02-15T00:39:25.558Z,95.12
2023-02-15T00:40:28.202Z,95.22
2023-02-15T00:41:30.102Z,94.84
2023-02-15T00:42:32.827Z,94.58
2023-02-15T00:43:35.549Z,93.64
2023-02-15T00:44:39.554Z,92.75
2023-02-15T00:45:41.432Z,92.65
2023-02-15T00:46:44.349Z,93.23
2023-02-15T00:47:46.252Z,92.56
2023-02-15T00:48:49.114Z,92.06
2023-02-15T00:49:50.784Z,91.51
2023-02-15T00:50:57.186Z,90.98
2023-02-15T00:51:58.787Z,91.12
2023-02-15T00:53:04.055Z,91.20
2023-02-15T00:54:06.244Z,91.06
2023-02-15T00:55:09.319Z,90.53
2023-02-15T00:56:11.028Z,90.86
2023-02-15T00:57:13.585Z,90.77
2023-02-15T00:58:16.064Z,90.72
2023-02-15T00:59:19.708Z,90.63
2023-02-15T01:00:22.739Z,90.61
2023-02-15T01:01:26.819Z,90.42
2023-02-15T01:02:29.271Z,90.12
2023-02-15T01:03:31.920Z,90.00
2023-02-15T01:04:33.600Z,89.27
2023-02-15T01:05:36.330Z,89.10
2023-02-15T01:06:38.042Z,88.60
2023-02-15T01:07:40.904Z,88.74
2023-02-15T01:08:42.630Z,88.56
2023-02-15T01:09:45.121Z,88.04
2023-02-15T01:10:48.145Z,88.22
2023-02-15T01:11:51.195Z,88.38
2023-02-15T01:12:53.445Z,89.62
2023-02-15T01:13:58.121Z,90.07
2023-02-15T01:15:00.040Z,90.11
2023-02-15T01:16:05.448Z,89.75
2023-02-15T01:17:07.235Z,88.96
2023-02-15T01:18:10.017Z,88.58
2023-02-15T01:19:11.702Z,88.11
2023-02-15T01:20:16.052Z,87.75
2023-02-15T01:21:20.809Z,87.45
2023-02-15T01:22:23.502Z,87.44
2023-02-15T01:23:25.230Z,87.31
2023-02-15T01:24:27.855Z,87.15
2023-02-15T01:25:29.406Z,87.08
2023-02-15T01:26:31.939Z,86.96
2023-02-15T01:27:33.611Z,86.86
2023-02-15T01:28:36.761Z,86.88
2023-02-15T01:29:38.404Z,87.31
2023-02-15T01:30:41.257Z,87.19
2023-02-15T01:31:44.492Z,87.05
2023-02-15T01:32:47.252Z,87.47
2023-02-15T01:33:50.569Z,87.80
2023-02-15T01:34:52.150Z,88.17
2023-02-15T01:35:59.788Z,88.72
2023-02-15T01:37:01.845Z,88.94
2023-02-15T01:38:04.563Z,89.98
2023-02-15T01:39:06.182Z,90.14
2023-02-15T01:40:13.480Z,89.61
2023-02-15T01:41:21.045Z,89.90
2023-02-15T01:42:26.527Z,89.81
2023-02-15T01:43:41.350Z,89.59
2023-02-15T01:44:50.590Z,89.08
2023-02-15T01:45:53.686Z,89.32
2023-02-15T01:46:56.711Z,89.05
2023-02-15T01:48:05.344Z,89.59
2023-02-15T01:49:12.702Z,90.02
2023-02-15T01:50:19.980Z,90.33
2023-02-15T01:51:24.699Z,90.21
2023-02-15T01:52:27.890Z,90.13
2023-02-15T01:53:36.926Z,89.89
2023-02-15T01:54:42.939Z,90.00
2023-02-15T01:55:48.369Z,89.36
2023-02-15T01:56:50.956Z,89.55
2023-02-15T01:57:52.920Z,90.06
2023-02-15T01:58:59.081Z,90.53
2023-02-15T02:00:04.756Z,90.75
2023-02-15T02:01:10.502Z,90.96
2023-02-15T02:02:15.857Z,91.65
2023-02-15T02:03:18.949Z,91.44
2023-02-15T02:04:27.386Z,91.31
2023-02-15T02:05:31.151Z,91.12
2023-02-15T02:06:34.441Z,90.69
2023-02-15T02:07:40.694Z,90.30
2023-02-15T02:08:43.165Z,90.11
2023-02-15T02:09:46.978Z,89.97
2023-02-15T02:10:48.561Z,88.88
2023-02-15T02:11:55.108Z,88.55
2023-02-15T02:13:00.788Z,88.50
2023-02-15T02:14:03.608Z,88.82
2023-02-15T02:15:06.856Z,88.83
2023-02-15T02:16:16.214Z,89.09
2023-02-15T02:17:24.530Z,88.38
2023-02-15T02:18:41.076Z,88.67
2023-02-15T02:20:27.470Z,88.75
2023-02-15T02:22:06.424Z,88.49
2023-02-15T02:23:29.231Z,87.94
2023-02-15T02:24:58.006Z,88.60
2023-02-15T02:26:39.944Z,87.91
2023-02-15T02:27:47.072Z,87.94
2023-02-15T02:29:23.766Z,87.66
2023-02-15T02:31:20.675Z,87.32
2023-02-15T02:32:53.988Z,87.57
2023-02-15T02:34:06.820Z,87.62
2023-02-15T02:35:14.165Z,88.47
2023-02-15T02:36:26.556Z,89.19
2023-02-15T02:37:35.536Z,90.02
2023-02-15T02:38:52.188Z,90.70
2023-02-15T02:40:05.304Z,91.49
2023-02-15T02:41:18.694Z,92.61
2023-02-15T02:42:30.277Z,92.62
2023-02-15T02:43:40.392Z,92.47
2023-02-15T02:44:44.923Z,92.56
2023-02-15T02:45:55.101Z,92.23
2023-02-15T02:47:03.313Z,91.78
2023-02-15T02:48:08.943Z,91.59
2023-02-15T02:49:13.506Z,91.49
2023-02-15T02:50:17.600Z,91.52
2023-02-15T02:51:23.329Z,91.01
2023-02-15T02:52:40.754Z,91.04
2023-02-15T02:53:43.298Z,91.11
2023-02-15T02:54:45.124Z,90.87
2023-02-15T02:55:52.693Z,90.60
2023-02-15T02:56:57.511Z,90.90
2023-02-15T02:58:08.063Z,90.77
2023-02-15T02:59:15.890Z,90.54
2023-02-15T03:00:20.773Z,90.35
2023-02-15T03:01:28.300Z,90.24
2023-02-15T03:02:36.247Z,89.86
2023-02-15T03:03:41.209Z,89.50
2023-02-15T03:04:50.120Z,89.76
2023-02-15T03:05:56.448Z,89.85
2023-02-15T03:07:04.840Z,89.94
2023-02-15T03:08:10.819Z,91.06
2023-02-15T03:09:22.574Z,91.03
2023-02-15T03:10:26.162Z,91.08
2023-02-15T03:11:29.060Z,90.47
2023-02-15T03:12:33.513Z,90.78
2023-02-15T03:13:37.267Z,90.83
2023-02-15T03:14:40.840Z,90.86
2023-02-15T03:16:04.100Z,90.70
2023-02-15T03:17:08.845Z,92.75
2023-02-15T03:18:10.856Z,94.49
2023-02-15T03:19:17.538Z,94.39
2023-02-15T03:20:26.506Z,93.61
2023-02-15T03:21:35.854Z,92.35
2023-02-15T03:22:41.787Z,91.31
2023-02-15T03:23:44.755Z,90.69
2023-02-15T03:24:55.950Z,90.36
2023-02-15T03:26:00.295Z,89.83
2023-02-15T03:27:06.076Z,89.71
2023-02-15T03:28:11.530Z,88.92
2023-02-15T03:29:16.459Z,88.50
2023-02-15T03:30:21.815Z,88.32
2023-02-15T03:31:30.311Z,87.84
2023-02-15T03:32:34.434Z,87.62
2023-02-15T03:33:42.811Z,87.24
2023-02-15T03:34:45.135Z,87.65
2023-02-15T03:35:55.100Z,87.65
2023-02-15T03:37:07.843Z,87.73
2023-02-15T03:38:12.270Z,87.72
2023-02-15T03:39:21.027Z,88.87
2023-02-15T03:40:45.618Z,90.61
2023-02-15T03:41:55.838Z,92.68
2023-02-15T03:43:03.543Z,91.87
2023-02-15T03:44:13.892Z,91.82
2023-02-15T03:45:20.890Z,91.50
2023-02-15T03:46:29.006Z,91.83
2023-02-15T03:47:34.908Z,92.02
2023-02-15T03:48:42.584Z,92.08
2023-02-15T03:49:54.398Z,93.02
2023-02-15T03:51:20.474Z,92.71
2023-02-15T03:52:24.414Z,92.54
2023-02-15T03:53:30.009Z,93.52
2023-02-15T03:54:44.493Z,93.98
2023-02-15T03:55:48.757Z,93.53
2023-02-15T03:57:11.092Z,94.02
2023-02-15T03:58:31.491Z,95.21
2023-02-15T03:59:56.839Z,95.66
2023-02-15T04:01:19.477Z,95.45
2023-02-15T04:02:27.064Z,94.75
2023-02-15T04:03:34.971Z,95.20
2023-02-15T04:04:39.784Z,95.55
2023-02-15T04:05:42.759Z,95.99
2023-02-15T04:06:46.754Z,96.25
2023-02-15T04:07:48.520Z,95.94
2023-02-15T04:09:08.628Z,95.66
2023-02-15T04:10:29.494Z,94.51
2023-02-15T04:11:34.649Z,94.07
2023-02-15T04:12:36.267Z,94.23
2023-02-15T04:13:39.351Z,95.13
2023-02-15T04:14:59.667Z,96.28
2023-02-15T04:16:04.664Z,96.56
2023-02-15T04:17:07.734Z,95.49
2023-02-15T04:18:12.164Z,94.96
2023-02-15T04:19:32.253Z,94.01
2023-02-15T04:20:53.281Z,93.21
2023-02-15T04:22:14.859Z,93.09
2023-02-15T04:23:35.313Z,92.77
2023-02-15T04:24:55.265Z,92.43
2023-02-15T04:25:57.914Z,93.38
2023-02-15T04:27:00.848Z,93.91
2023-02-15T04:28:03.494Z,93.25
2023-02-15T04:29:05.237Z,92.96
2023-02-15T04:30:09.349Z,93.18
2023-02-15T04:31:11.161Z,93.55
2023-02-15T04:32:13.845Z,92.81
2023-02-15T04:33:16.132Z,92.87
2023-02-15T04:34:18.950Z,91.91
2023-02-15T04:35:20.603Z,91.25
2023-02-15T04:36:23.314Z,90.62
2023-02-15T04:37:27.444Z,90.58
2023-02-15T04:38:29.136Z,90.68
2023-02-15T04:39:33.105Z,90.41
2023-02-15T04:40:35.773Z,90.21
2023-02-15T04:41:37.915Z,89.98
2023-02-15T04:42:40.508Z,89.65
2023-02-15T04:43:42.173Z,89.50
2023-02-15T04:44:44.892Z,89.53
2023-02-15T04:45:51.204Z,89.60
2023-02-15T04:46:53.401Z,89.93
2023-02-15T04:47:58.280Z,89.86
2023-02-15T04:48:59.975Z,90.43
2023-02-15T04:50:02.769Z,90.81
2023-02-15T04:51:06.593Z,91.18
2023-02-15T04:52:09.226Z,91.02
2023-02-15T04:53:12.420Z,91.28
2023-02-15T04:54:15.266Z,91.92
2023-02-15T04:55:17.063Z,92.12
2023-02-15T04:56:19.684Z,92.35
2023-02-15T04:57:21.462Z,91.83
2023-02-15T04:58:24.128Z,92.59
2023-02-15T04:59:25.853Z,92.08
2023-02-15T05:00:28.493Z,91.69
2023-02-15T05:01:33.248Z,91.46
2023-02-15T05:02:35.853Z,91.36
2023-02-15T05:03:38.384Z,91.21
2023-02-15T05:04:41.151Z,92.12
2023-02-15T05:05:43.660Z,92.39
2023-02-15T05:06:47.885Z,93.40
2023-02-15T05:07:49.887Z,94.67
2023-02-15T05:08:53.978Z,95.43
2023-02-15T05:09:55.955Z,95.65
2023-02-15T05:10:58.809Z,95.83
2023-02-15T05:12:00.619Z,95.45
2023-02-15T05:13:03.276Z,95.19
2023-02-15T05:14:05.276Z,94.97
2023-02-15T05:15:10.234Z,94.99
2023-02-15T05:16:12.298Z,95.35
2023-02-15T05:17:15.888Z,94.36
2023-02-15T05:18:18.407Z,93.80
2023-02-15T05:19:21.248Z,94.71
2023-02-15T05:20:22.841Z,94.33
2023-02-15T05:21:25.424Z,94.15
2023-02-15T05:22:27.019Z,94.14
2023-02-15T05:23:32.615Z,93.77
2023-02-15T05:24:54.025Z,94.00
2023-02-15T05:26:10.808Z,93.02
2023-02-15T05:27:31.478Z,93.13
2023-02-15T05:28:35.537Z,93.87
2023-02-15T05:29:37.218Z,94.43
2023-02-15T05:30:40.745Z,95.03
2023-02-15T05:31:43.122Z,96.56
2023-02-15T05:32:45.941Z,97.79
2023-02-15T05:33:47.742Z,97.93
2023-02-15T05:34:50.287Z,97.93
2023-02-15T05:35:52.261Z,99.48
2023-02-15T05:36:54.958Z,99.22
2023-02-15T05:37:57.567Z,98.50
2023-02-15T05:39:00.174Z,97.48
2023-02-15T05:40:03.776Z,97.41
2023-02-15T05:41:06.708Z,97.60
2023-02-15T05:42:08.303Z,98.02
2023-02-15T05:43:13.120Z,98.80
2023-02-15T05:44:15.036Z,98.99
2023-02-15T05:45:17.711Z,98.08
2023-02-15T05:46:19.318Z,98.96
2023-02-15T05:47:21.864Z,98.99
2023-02-15T05:48:25.533Z,98.07
2023-02-15T05:49:28.082Z,97.17
2023-02-15T05:50:29.728Z,96.81
2023-02-15T05:51:32.280Z,96.01
2023-02-15T05:52:33.964Z,95.99
2023-02-15T05:53:39.180Z,96.31
2023-02-15T05:54:40.785Z,96.54
2023-02-15T05:55:44.708Z,95.95
2023-02-15T05:56:46.216Z,96.63
2023-02-15T05:57:49.021Z,97.10
2023-02-15T05:58:50.702Z,97.48
2023-02-15T05:59:53.237Z,97.70
2023-02-15T06:00:54.957Z,97.69
2023-02-15T06:01:57.480Z,96.68
2023-02-15T06:02:59.100Z,96.44
2023-02-15T06:04:01.885Z,95.71
2023-02-15T06:05:04.567Z,95.03
2023-02-15T06:06:08.279Z,94.83
2023-02-15T06:07:09.882Z,94.66
2023-02-15T06:08:12.553Z,94.02
2023-02-15T06:09:14.999Z,95.21
2023-02-15T06:10:17.712Z,95.83
2023-02-15T06:11:20.952Z,95.84
2023-02-15T06:12:23.650Z,96.61
2023-02-15T06:13:25.276Z,96.39
2023-02-15T06:14:27.932Z,96.61
2023-02-15T06:15:29.868Z,97.01
2023-02-15T06:16:32.416Z,96.42
2023-02-15T06:17:34.209Z,96.21
2023-02-15T06:18:36.817Z,96.00
2023-02-15T06:19:38.355Z,95.61
2023-02-15T06:20:41.443Z,95.29
2023-02-15T06:21:44.089Z,95.10
2023-02-15T06:22:45.660Z,96.08
2023-02-15T06:23:48.344Z,96.47
2023-02-15T06:24:53.823Z,96.10
2023-02-15T06:25:55.357Z,96.98
2023-02-15T06:26:59.317Z,97.25
2023-02-15T06:28:00.942Z,97.22
2023-02-15T06:29:03.736Z,97.27
2023-02-15T06:30:06.892Z,98.59
2023-02-15T06:31:09.889Z,98.69
2023-02-15T06:32:11.803Z,99.07
2023-02-15T06:33:15.590Z,100.00
2023-02-15T06:34:17.507Z,100.00
2023-02-15T06:35:20.112Z,100.00
2023-02-15T06:36:21.675Z,100.00
2023-02-15T06:37:24.416Z,100.00
2023-02-15T06:38:26.018Z,100.00
2023-02-15T06:39:29.096Z,100.00
2023-02-15T06:40:31.057Z,100.00
2023-02-15T06:41:33.636Z,100.00
2023-02-15T06:42:36.572Z,100.00
2023-02-15T06:43:40.971Z,100.00
2023-02-15T06:44:42.715Z,100.00
2023-02-15T06:45:45.332Z,100.00
2023-02-15T06:46:47.273Z,100.00
2023-02-15T06:47:49.900Z,100.00
2023-02-15T06:48:51.766Z,100.00
2023-02-15T06:49:54.367Z,100.00
2023-02-15T06:50:56.204Z,100.00
2023-02-15T06:51:58.821Z,100.00
2023-02-15T06:53:00.711Z,100.00
2023-02-15T06:54:03.323Z,99.78
2023-02-15T06:55:05.632Z,99.66
2023-02-15T06:56:10.298Z,99.69
2023-02-15T06:57:11.961Z,100.00
2023-02-15T06:58:18.050Z,100.00
2023-02-15T06:59:20.657Z,100.00
2023-02-15T07:00:24.181Z,100.00
2023-02-15T07:01:25.830Z,100.00
2023-02-15T07:02:28.487Z,100.00
2023-02-15T07:03:30.482Z,99.65
2023-02-15T07:04:33.184Z,99.49
2023-02-15T07:05:35.436Z,99.63
2023-02-15T07:06:37.976Z,99.37
2023-02-15T07:07:39.636Z,98.51
2023-02-15T07:08:42.268Z,98.61
2023-02-15T07:09:43.914Z,98.46
2023-02-15T07:10:46.519Z,98.75
2023-02-15T07:12:06.744Z,98.94
2023-02-15T07:13:08.302Z,98.70
2023-02-15T07:14:12.236Z,97.99
2023-02-15T07:15:16.431Z,98.19
2023-02-15T07:16:18.031Z,98.15
2023-02-15T07:17:35.620Z,97.22
2023-02-15T07:18:38.903Z,97.13
2023-02-15T07:19:40.504Z,97.12
2023-02-15T07:20:43.167Z,96.49
2023-02-15T07:21:46.461Z,96.14
2023-02-15T07:22:49.383Z,95.94
2023-02-15T07:23:51.069Z,95.16
2023-02-15T07:24:55.529Z,94.76
2023-02-15T07:25:59.190Z,95.04
2023-02-15T07:27:01.802Z,95.20
2023-02-15T07:28:06.128Z,94.54
2023-02-15T07:29:07.849Z,94.34
2023-02-15T07:30:14.152Z,93.96
2023-02-15T07:31:15.793Z,93.81
2023-02-15T07:32:18.388Z,94.00
2023-02-15T07:33:27.900Z,93.99
2023-02-15T07:34:30.422Z,93.58
2023-02-15T07:35:32.436Z,93.36
2023-02-15T07:36:35.083Z,93.18
2023-02-15T07:37:37.750Z,92.68
2023-02-15T07:38:42.169Z,92.54
2023-02-15T07:39:44.709Z,92.18
2023-02-15T07:40:46.548Z,92.42
2023-02-15T07:41:50.193Z,92.60
2023-02-15T07:42:54.399Z,92.50
2023-02-15T07:43:57.150Z,92.55
2023-02-15T07:44:58.795Z,92.88
2023-02-15T07:46:03.995Z,92.90
2023-02-15T07:47:06.236Z,92.53
2023-02-15T07:48:09.479Z,93.01
2023-02-15T07:49:11.099Z,93.50
2023-02-15T07:50:13.872Z,94.59
2023-02-15T07:51:17.249Z,94.35
2023-02-15T07:52:21.677Z,93.96
2023-02-15T07:53:23.424Z,93.94
2023-02-15T07:54:26.101Z,93.36
2023-02-15T07:55:27.744Z,92.68
2023-02-15T07:56:31.329Z,92.30
2023-02-15T07:57:35.005Z,92.47
2023-02-15T07:58:53.017Z,92.28
2023-02-15T07:59:56.041Z,92.62
2023-02-15T08:00:57.920Z,92.00
2023-02-15T08:02:02.002Z,91.99
2023-02-15T08:03:17.023Z,92.22
2023-02-15T08:04:24.813Z,92.82
2023-02-15T08:05:26.518Z,93.86
2023-02-15T08:06:30.514Z,93.68
2023-02-15T08:07:33.319Z,93.11
2023-02-15T08:08:36.384Z,92.93
2023-02-15T08:09:39.368Z,92.79
2023-02-15T08:10:59.738Z,92.94
2023-02-15T08:12:03.202Z,93.10
2023-02-15T08:13:04.759Z,93.15
2023-02-15T08:14:09.653Z,93.57
2023-02-15T08:15:11.226Z,94.98
2023-02-15T08:16:15.415Z,95.89
2023-02-15T08:17:19.322Z,96.68
2023-02-15T08:18:20.974Z,95.92
2023-02-15T08:19:25.876Z,95.76
2023-02-15T08:20:27.685Z,95.82
2023-02-15T08:21:31.778Z,95.08
2023-02-15T08:22:34.745Z,95.17
2023-02-15T08:23:36.408Z,95.10
2023-02-15T08:24:39.551Z,94.64
2023-02-15T08:25:41.120Z,94.25
2023-02-15T08:26:45.960Z,93.28
2023-02-15T08:27:48.804Z,93.58
2023-02-15T08:28:51.787Z,93.79
2023-02-15T08:29:54.564Z,94.10
2023-02-15T08:30:56.219Z,94.03
2023-02-15T08:32:04.358Z,94.73
2023-02-15T08:33:07.349Z,94.54
2023-02-15T08:34:11.446Z,95.04
2023-02-15T08:35:14.142Z,95.20
2023-02-15T08:36:17.611Z,94.35
2023-02-15T08:37:20.137Z,93.90
2023-02-15T08:38:21.741Z,92.92
2023-02-15T08:39:26.166Z,92.58
2023-02-15T08:40:27.989Z,92.01
2023-02-15T08:41:33.301Z,91.75
2023-02-15T08:42:35.159Z,91.59
2023-02-15T08:43:37.695Z,91.94
2023-02-15T08:44:40.630Z,91.35
2023-02-15T08:45:42.705Z,91.51
2023-02-15T08:46:46.975Z,91.61
2023-02-15T08:47:49.532Z,92.12
2023-02-15T08:48:53.768Z,92.31
2023-02-15T08:49:56.916Z,92.16
2023-02-15T08:50:58.569Z,92.56
2023-02-15T08:52:01.631Z,91.53
2023-02-15T08:53:03.145Z,91.04
2023-02-15T08:54:08.225Z,91.11
2023-02-15T08:55:10.792Z,91.11
2023-02-15T08:56:13.032Z,91.01
2023-02-15T08:57:15.679Z,91.15
2023-02-15T08:58:17.231Z,90.53
2023-02-15T08:59:22.422Z,89.82
2023-02-15T09:00:24.208Z,90.82
2023-02-15T09:01:29.003Z,90.38
2023-02-15T09:02:30.657Z,90.52
2023-02-15T09:03:33.638Z,90.53
2023-02-15T09:04:37.778Z,90.48
2023-02-15T09:05:39.665Z,91.09
2023-02-15T09:06:44.035Z,91.24
2023-02-15T09:07:45.757Z,90.51
2023-02-15T09:08:48.447Z,89.33
2023-02-15T09:09:50.964Z,89.48
2023-02-15T09:10:52.571Z,89.35
2023-02-15T09:11:59.269Z,89.59
2023-02-15T09:13:01.199Z,88.53
2023-02-15T09:14:06.514Z,88.51
2023-02-15T09:15:08.655Z,88.60
2023-02-15T09:16:11.809Z,89.19
2023-02-15T09:17:16.106Z,89.30
2023-02-15T09:18:18.096Z,89.92
2023-02-15T09:19:23.059Z,89.66
2023-02-15T09:20:26.133Z,89.51
2023-02-15T09:21:29.160Z,89.33
2023-02-15T09:22:35.102Z,89.25
2023-02-15T09:23:38.351Z,88.94
2023-02-15T09:24:40.927Z,89.29
2023-02-15T09:25:43.520Z,89.12
2023-02-15T09:26:48.099Z,88.59
2023-02-15T09:27:49.711Z,89.11
2023-02-15T09:28:56.463Z,89.03
2023-02-15T09:29:59.052Z,88.62
2023-02-15T09:31:10.569Z,88.47
2023-02-15T09:32:16.018Z,88.34
2023-02-15T09:33:17.627Z,88.64
2023-02-15T09:34:22.852Z,88.43
2023-02-15T09:35:26.070Z,88.33
2023-02-15T09:36:34.176Z,88.14
2023-02-15T09:37:36.180Z,88.99
2023-02-15T09:38:38.925Z,89.13
2023-02-15T09:39:44.687Z,88.96
2023-02-15T09:41:03.697Z,88.89
2023-02-15T09:42:27.321Z,89.07
2023-02-15T09:43:41.296Z,89.57
2023-02-15T09:45:05.748Z,89.32
2023-02-15T09:46:24.465Z,89.29
2023-02-15T09:47:46.100Z,89.60
2023-02-15T09:48:55.324Z,89.50
2023-02-15T09:50:03.831Z,89.58
2023-02-15T09:51:45.235Z,89.27
2023-02-15T09:53:00.297Z,90.45
2023-02-15T09:54:12.471Z,88.69
2023-02-15T09:55:32.435Z,88.29
2023-02-15T09:56:41.227Z,88.76
2023-02-15T09:57:52.261Z,88.44
2023-02-15T09:59:04.913Z,88.92
2023-02-15T10:00:20.389Z,89.12
2023-02-15T10:01:35.836Z,88.49
2023-02-15T10:02:55.345Z,87.63
2023-02-15T10:04:13.886Z,87.98
2023-02-15T10:05:33.320Z,88.20
2023-02-15T10:06:43.089Z,88.98
2023-02-15T10:08:17.648Z,87.76
2023-02-15T10:09:44.581Z,88.04
2023-02-15T10:10:58.126Z,87.77
2023-02-15T10:12:17.987Z,90.88
2023-02-15T10:13:34.022Z,88.57
2023-02-15T10:15:01.772Z,88.05
2023-02-15T10:16:19.020Z,88.01
2023-02-15T10:17:39.384Z,88.45
2023-02-15T10:18:55.094Z,87.04
2023-02-15T10:20:12.029Z,86.69
2023-02-15T10:21:25.096Z,87.20
2023-02-15T10:22:38.589Z,86.94
2023-02-15T10:24:03.578Z,84.81
2023-02-15T10:25:19.357Z,85.82
2023-02-15T10:26:24.140Z,83.43
2023-02-15T10:27:28.205Z,81.47
2023-02-15T10:28:44.025Z,81.14
2023-02-15T10:29:56.740Z,80.98
2023-02-15T10:31:09.772Z,79.69
2023-02-15T10:32:24.810Z,79.37
2023-02-15T10:33:40.516Z,79.19
2023-02-15T10:34:52.576Z,77.29
2023-02-15T10:36:06.862Z,75.70
2023-02-15T10:37:30.459Z,71.71
2023-02-15T10:38:39.836Z,69.29
2023-02-15T10:39:52.775Z,66.86
2023-02-15T10:41:10.812Z,64.73
2023-02-15T10:42:22.733Z,62.54
2023-02-15T10:43:41.765Z,61.14
2023-02-15T10:45:00.986Z,58.85
2023-02-15T10:46:13.359Z,56.42
2023-02-15T10:47:35.136Z,56.09
2023-02-15T10:48:54.632Z,56.18
2023-02-15T10:50:11.064Z,54.65
2023-02-15T10:51:21.275Z,53.85
2023-02-15T10:52:38.162Z,51.61
2023-02-15T10:54:04.297Z,52.60
2023-02-15T10:55:15.241Z,53.04
2023-02-15T10:56:25.969Z,52.27
2023-02-15T10:57:36.687Z,51.40
2023-02-15T10:58:53.159Z,51.79
2023-02-15T11:00:07.973Z,51.85
2023-02-15T11:01:21.046Z,53.10
2023-02-15T11:02:35.083Z,53.19
2023-02-15T11:03:58.453Z,50.49
2023-02-15T11:05:16.251Z,50.67
2023-02-15T11:06:21.721Z,50.64
2023-02-15T11:07:27.802Z,49.59
2023-02-15T11:08:34.562Z,48.19
2023-02-15T11:09:43.136Z,48.92
2023-02-15T11:10:52.502Z,49.93
2023-02-15T11:11:58.223Z,50.92
2023-02-15T11:13:07.512Z,52.24
2023-02-15T11:14:17.463Z,51.02
2023-02-15T11:15:25.769Z,48.24
2023-02-15T11:16:33.784Z,46.50
2023-02-15T11:17:41.299Z,45.81
2023-02-15T11:18:49.632Z,45.65
2023-02-15T11:19:59.144Z,46.76
2023-02-15T11:21:08.009Z,46.41
2023-02-15T11:22:12.613Z,46.51
2023-02-15T11:23:19.393Z,47.68
2023-02-15T11:24:22.719Z,46.78
2023-02-15T11:25:29.680Z,47.28
2023-02-15T11:26:38.424Z,45.95
2023-02-15T11:27:41.214Z,46.21
2023-02-15T11:28:49.520Z,47.90
2023-02-15T11:29:59.413Z,44.44
2023-02-15T11:31:13.188Z,45.37
2023-02-15T11:32:22.153Z,50.96
2023-02-15T11:33:29.908Z,49.47
2023-02-15T11:34:38.321Z,49.20
2023-02-15T11:35:49.817Z,47.69
2023-02-15T11:36:57.146Z,48.15
2023-02-15T11:38:06.247Z,47.76
2023-02-15T11:39:13.252Z,47.44
2023-02-15T11:40:23.143Z,45.42
2023-02-15T11:41:30.434Z,49.11
2023-02-15T11:42:34.432Z,48.58
2023-02-15T11:43:42.124Z,50.92
2023-02-15T11:44:56.280Z,50.77
2023-02-15T11:45:58.999Z,48.45
2023-02-15T11:47:04.540Z,49.00
2023-02-15T11:48:11.702Z,49.33
2023-02-15T11:49:24.478Z,50.97
2023-02-15T11:50:29.674Z,47.55
2023-02-15T11:51:32.237Z,48.88
2023-02-15T11:52:34.803Z,49.98
2023-02-15T11:53:40.497Z,47.77
2023-02-15T11:54:45.117Z,44.59
2023-02-15T11:55:49.483Z,46.17
2023-02-15T11:56:51.349Z,49.85
2023-02-15T11:57:58.654Z,49.50
2023-02-15T11:59:08.213Z,46.91
2023-02-15T12:00:18.038Z,44.25
2023-02-15T12:01:25.652Z,41.97
2023-02-15T12:02:31.121Z,41.59
2023-02-15T12:03:46.603Z,41.43
2023-02-15T12:04:54.826Z,40.54
2023-02-15T12:06:03.461Z,39.91
2023-02-15T12:07:16.188Z,39.69
2023-02-15T12:08:21.978Z,38.32
2023-02-15T12:09:33.846Z,37.96
2023-02-15T12:10:42.074Z,41.46
2023-02-15T12:11:44.646Z,40.80
2023-02-15T12:12:46.399Z,40.00
2023-02-15T12:13:58.586Z,39.33
2023-02-15T12:15:01.956Z,38.88
2023-02-15T12:16:11.477Z,39.11
2023-02-15T12:17:15.447Z,38.27
2023-02-15T12:18:36.909Z,40.06
2023-02-15T12:19:41.396Z,39.42
2023-02-15T12:20:45.034Z,38.10
2023-02-15T12:21:53.352Z,38.09
2023-02-15T12:23:03.011Z,38.00
2023-02-15T12:24:17.705Z,37.24
2023-02-15T12:25:24.713Z,37.54
2023-02-15T12:26:29.136Z,37.90
2023-02-15T12:27:34.045Z,37.82
2023-02-15T12:28:40.714Z,37.47
2023-02-15T12:29:48.096Z,37.08
2023-02-15T12:30:50.890Z,37.89
2023-02-15T12:31:54.644Z,38.10
2023-02-15T12:33:00.905Z,38.79
2023-02-15T12:34:11.503Z,44.12
2023-02-15T12:35:23.054Z,43.54
2023-02-15T12:36:29.328Z,40.09
2023-02-15T12:37:35.610Z,39.80
2023-02-15T12:38:37.347Z,39.61
2023-02-15T12:39:53.556Z,37.85
2023-02-15T12:41:00.929Z,37.35
2023-02-15T12:42:06.699Z,36.30
2023-02-15T12:43:27.120Z,35.13
2023-02-15T12:44:31.244Z,35.96
2023-02-15T12:45:36.420Z,38.39
2023-02-15T12:46:38.437Z,38.70
2023-02-15T12:47:41.019Z,38.55
2023-02-15T12:48:43.025Z,38.89
2023-02-15T12:49:48.088Z,38.57
2023-02-15T12:50:55.432Z,37.54
2023-02-15T12:52:00.208Z,38.02
2023-02-15T12:53:09.336Z,35.54
2023-02-15T12:54:23.294Z,35.51
2023-02-15T12:55:30.493Z,36.57
2023-02-15T12:56:33.269Z,37.14
2023-02-15T12:57:36.074Z,36.70
2023-02-15T12:58:39.669Z,36.64
2023-02-15T12:59:49.293Z,36.44
2023-02-15T13:01:06.159Z,35.11
2023-02-15T13:02:17.702Z,36.39
2023-02-15T13:03:24.933Z,36.91
2023-02-15T13:04:28.368Z,37.88
2023-02-15T13:05:36.173Z,37.00
2023-02-15T13:06:38.018Z,38.57
2023-02-15T13:07:40.566Z,38.01
2023-02-15T13:08:51.417Z,36.85
2023-02-15T13:09:54.291Z,36.63
2023-02-15T13:11:00.474Z,35.59
2023-02-15T13:12:12.441Z,35.09
2023-02-15T13:13:22.796Z,35.25
2023-02-15T13:14:32.513Z,34.88
2023-02-15T13:15:39.312Z,34.52
2023-02-15T13:16:46.109Z,34.90
2023-02-15T13:17:49.571Z,34.28
2023-02-15T13:18:54.030Z,33.88
2023-02-15T13:19:59.603Z,36.08
2023-02-15T13:21:11.641Z,35.68
2023-02-15T13:22:18.954Z,34.42
2023-02-15T13:23:31.843Z,34.09
2023-02-15T13:24:40.598Z,35.63
2023-02-15T13:25:51.161Z,36.43
2023-02-15T13:27:01.011Z,36.42
2023-02-15T13:28:16.763Z,37.63
2023-02-15T13:29:24.485Z,39.23
2023-02-15T13:30:30.096Z,38.61
2023-02-15T13:31:34.390Z,38.06
2023-02-15T13:32:41.870Z,37.93
2023-02-15T13:33:48.477Z,36.17
2023-02-15T13:34:50.088Z,35.85
2023-02-15T13:36:00.149Z,35.17
2023-02-15T13:37:10.292Z,35.26
2023-02-15T13:38:33.337Z,34.35
2023-02-15T13:39:41.019Z,34.19
2023-02-15T13:40:51.282Z,34.86
2023-02-15T13:42:01.708Z,35.48
2023-02-15T13:43:13.700Z,35.33
2023-02-15T13:44:27.699Z,35.05
2023-02-15T13:45:41.922Z,34.42
2023-02-15T13:46:54.234Z,33.56
2023-02-15T13:48:07.866Z,33.79
2023-02-15T13:49:20.907Z,33.60
2023-02-15T13:50:36.567Z,34.55
2023-02-15T13:51:46.186Z,32.61
2023-02-15T13:52:56.869Z,33.31
2023-02-15T13:54:04.265Z,33.24
2023-02-15T13:55:40.327Z,33.34
2023-02-15T13:56:55.675Z,32.51
2023-02-15T13:58:27.138Z,33.50
2023-02-15T13:59:49.106Z,33.00
2023-02-15T14:01:06.173Z,33.03
2023-02-15T14:02:31.834Z,33.19
2023-02-15T14:04:06.213Z,32.92
2023-02-15T14:05:26.919Z,32.02
2023-02-15T14:06:42.747Z,33.13
2023-02-15T14:07:56.867Z,32.37
2023-02-15T14:09:13.508Z,31.75
2023-02-15T14:10:34.034Z,31.58
2023-02-15T14:11:46.498Z,31.94
2023-02-15T14:13:02.971Z,31.47
2023-02-15T14:14:34.077Z,32.18
2023-02-15T14:15:46.667Z,32.04
2023-02-15T14:17:06.693Z,31.34
2023-02-15T14:18:24.261Z,31.11
2023-02-15T14:19:37.312Z,32.16
2023-02-15T14:20:51.062Z,32.11
2023-02-15T14:22:02.977Z,32.29